sensor_id;sensor_type;location;lat;lon;timestamp;P1;durP1;ratioP1;P2;durP2;ratioP2
22034;SDS011;11181;51.002;4.356;2023-04-06T00:00:26;15.00;;;9.33;;
22034;SDS011;11181;51.002;4.356;2023-04-06T00:02:53;13.80;;;9.20;;
22034;SDS011;11181;51.002;4.356;2023-04-06T00:05:21;16.33;;;9.70;;
22034;SDS011;11181;51.002;4.356;2023-04-06T00:07:49;15.20;;;9.17;;
22034;SDS011;11181;51.002;4.356;2023-04-06T00:10:16;17.43;;;8.97;;
22034;SDS011;11181;51.002;4.356;2023-04-06T00:12:43;17.03;;;9.63;;
22034;SDS011;11181;51.002;4.356;2023-04-06T00:15:10;17.67;;;8.77;;
22034;SDS011;11181;51.002;4.356;2023-04-06T00:17:37;13.13;;;8.67;;
22034;SDS011;11181;51.002;4.356;2023-04-06T00:20:04;12.83;;;7.93;;
22034;SDS011;11181;51.002;4.356;2023-04-06T00:22:34;15.63;;;9.33;;
22034;SDS011;11181;51.002;4.356;2023-04-06T00:25:01;14.77;;;8.93;;
22034;SDS011;11181;51.002;4.356;2023-04-06T00:27:28;14.57;;;8.70;;
22034;SDS011;11181;51.002;4.356;2023-04-06T00:29:55;14.67;;;8.73;;
22034;SDS011;11181;51.002;4.356;2023-04-06T00:32:22;17.17;;;9.33;;
22034;SDS011;11181;51.002;4.356;2023-04-06T00:34:49;17.20;;;10.10;;
22034;SDS011;11181;51.002;4.356;2023-04-06T00:37:16;14.17;;;8.90;;
22034;SDS011;11181;51.002;4.356;2023-04-06T00:39:45;15.23;;;9.23;;
22034;SDS011;11181;51.002;4.356;2023-04-06T00:42:12;13.40;;;8.17;;
22034;SDS011;11181;51.002;4.356;2023-04-06T00:44:40;14.47;;;9.07;;
22034;SDS011;11181;51.002;4.356;2023-04-06T00:47:07;16.97;;;9.33;;
22034;SDS011;11181;51.002;4.356;2023-04-06T00:49:34;16.20;;;9.90;;
22034;SDS011;11181;51.002;4.356;2023-04-06T00:52:01;14.43;;;9.10;;
22034;SDS011;11181;51.002;4.356;2023-04-06T00:54:28;14.77;;;9.10;;
22034;SDS011;11181;51.002;4.356;2023-04-06T00:56:57;12.97;;;8.93;;
22034;SDS011;11181;51.002;4.356;2023-04-06T00:59:24;15.00;;;8.97;;
22034;SDS011;11181;51.002;4.356;2023-04-06T01:01:52;14.20;;;8.43;;
22034;SDS011;11181;51.002;4.356;2023-04-06T01:04:19;13.40;;;8.67;;
22034;SDS011;11181;51.002;4.356;2023-04-06T01:06:47;15.93;;;8.07;;
22034;SDS011;11181;51.002;4.356;2023-04-06T01:09:15;11.93;;;8.37;;
22034;SDS011;11181;51.002;4.356;2023-04-06T01:11:42;14.67;;;9.63;;
22034;SDS011;11181;51.002;4.356;2023-04-06T01:14:10;15.90;;;8.90;;
22034;SDS011;11181;51.002;4.356;2023-04-06T01:16:37;13.43;;;8.43;;
22034;SDS011;11181;51.002;4.356;2023-04-06T01:19:07;12.20;;;8.27;;
22034;SDS011;11181;51.002;4.356;2023-04-06T01:21:35;15.60;;;8.33;;
22034;SDS011;11181;51.002;4.356;2023-04-06T01:24:03;11.10;;;7.33;;
22034;SDS011;11181;51.002;4.356;2023-04-06T01:26:31;18.33;;;9.07;;
22034;SDS011;11181;51.002;4.356;2023-04-06T01:28:58;13.73;;;8.80;;
22034;SDS011;11181;51.002;4.356;2023-04-06T01:31:25;15.27;;;9.13;;
22034;SDS011;11181;51.002;4.356;2023-04-06T01:33:53;15.47;;;8.73;;
22034;SDS011;11181;51.002;4.356;2023-04-06T01:36:20;15.60;;;8.73;;
22034;SDS011;11181;51.002;4.356;2023-04-06T01:38:47;15.20;;;8.53;;
22034;SDS011;11181;51.002;4.356;2023-04-06T01:41:16;15.73;;;8.57;;
22034;SDS011;11181;51.002;4.356;2023-04-06T01:43:43;15.47;;;8.30;;
22034;SDS011;11181;51.002;4.356;2023-04-06T01:46:10;13.60;;;8.63;;
22034;SDS011;11181;51.002;4.356;2023-04-06T01:48:37;15.40;;;8.30;;
22034;SDS011;11181;51.002;4.356;2023-04-06T01:51:04;13.70;;;8.70;;
22034;SDS011;11181;51.002;4.356;2023-04-06T01:53:31;12.43;;;8.10;;
22034;SDS011;11181;51.002;4.356;2023-04-06T01:55:58;16.93;;;9.30;;
22034;SDS011;11181;51.002;4.356;2023-04-06T01:58:27;11.97;;;8.37;;
22034;SDS011;11181;51.002;4.356;2023-04-06T02:00:54;15.17;;;8.80;;
22034;SDS011;11181;51.002;4.356;2023-04-06T02:03:21;16.80;;;8.07;;
22034;SDS011;11181;51.002;4.356;2023-04-06T02:05:48;16.13;;;8.27;;
22034;SDS011;11181;51.002;4.356;2023-04-06T02:08:15;18.30;;;8.83;;
22034;SDS011;11181;51.002;4.356;2023-04-06T02:10:42;14.90;;;9.07;;
22034;SDS011;11181;51.002;4.356;2023-04-06T02:13:09;13.00;;;8.37;;
22034;SDS011;11181;51.002;4.356;2023-04-06T02:15:37;16.67;;;9.60;;
22034;SDS011;11181;51.002;4.356;2023-04-06T02:18:04;13.90;;;8.80;;
22034;SDS011;11181;51.002;4.356;2023-04-06T02:20:31;15.10;;;8.60;;
22034;SDS011;11181;51.002;4.356;2023-04-06T02:22:58;14.17;;;8.87;;
22034;SDS011;11181;51.002;4.356;2023-04-06T02:25:26;17.47;;;9.97;;
22034;SDS011;11181;51.002;4.356;2023-04-06T02:27:53;12.80;;;8.80;;
22034;SDS011;11181;51.002;4.356;2023-04-06T02:30:20;17.07;;;10.07;;
22034;SDS011;11181;51.002;4.356;2023-04-06T02:32:48;16.00;;;9.83;;
22034;SDS011;11181;51.002;4.356;2023-04-06T02:35:15;13.97;;;9.10;;
22034;SDS011;11181;51.002;4.356;2023-04-06T02:37:43;15.33;;;9.27;;
22034;SDS011;11181;51.002;4.356;2023-04-06T02:40:10;17.10;;;9.57;;
22034;SDS011;11181;51.002;4.356;2023-04-06T02:42:37;12.93;;;8.80;;
22034;SDS011;11181;51.002;4.356;2023-04-06T02:45:04;14.93;;;9.17;;
22034;SDS011;11181;51.002;4.356;2023-04-06T02:47:32;16.17;;;9.27;;
22034;SDS011;11181;51.002;4.356;2023-04-06T02:50:01;15.17;;;8.70;;
22034;SDS011;11181;51.002;4.356;2023-04-06T02:52:28;15.70;;;9.07;;
22034;SDS011;11181;51.002;4.356;2023-04-06T02:54:55;15.67;;;10.00;;
22034;SDS011;11181;51.002;4.356;2023-04-06T02:57:22;14.03;;;9.20;;
22034;SDS011;11181;51.002;4.356;2023-04-06T02:59:49;15.20;;;9.77;;
22034;SDS011;11181;51.002;4.356;2023-04-06T03:02:15;19.97;;;9.43;;
22034;SDS011;11181;51.002;4.356;2023-04-06T03:04:42;14.10;;;8.90;;
22034;SDS011;11181;51.002;4.356;2023-04-06T03:07:11;15.23;;;9.00;;
22034;SDS011;11181;51.002;4.356;2023-04-06T03:09:38;15.07;;;8.80;;
22034;SDS011;11181;51.002;4.356;2023-04-06T03:12:06;15.57;;;9.27;;
22034;SDS011;11181;51.002;4.356;2023-04-06T03:14:33;16.03;;;9.27;;
22034;SDS011;11181;51.002;4.356;2023-04-06T03:17:00;18.87;;;10.40;;
22034;SDS011;11181;51.002;4.356;2023-04-06T03:19:27;14.70;;;9.30;;
22034;SDS011;11181;51.002;4.356;2023-04-06T03:21:54;13.70;;;8.70;;
22034;SDS011;11181;51.002;4.356;2023-04-06T03:24:22;13.70;;;8.80;;
22034;SDS011;11181;51.002;4.356;2023-04-06T03:26:49;15.83;;;9.60;;
22034;SDS011;11181;51.002;4.356;2023-04-06T03:29:16;16.43;;;8.60;;
22034;SDS011;11181;51.002;4.356;2023-04-06T03:31:43;17.87;;;9.60;;
22034;SDS011;11181;51.002;4.356;2023-04-06T03:34:10;12.77;;;8.60;;
22034;SDS011;11181;51.002;4.356;2023-04-06T03:36:37;14.23;;;8.80;;
22034;SDS011;11181;51.002;4.356;2023-04-06T03:39:04;19.57;;;9.20;;
22034;SDS011;11181;51.002;4.356;2023-04-06T03:41:32;15.27;;;9.97;;
22034;SDS011;11181;51.002;4.356;2023-04-06T03:44:00;18.57;;;9.77;;
22034;SDS011;11181;51.002;4.356;2023-04-06T03:46:27;16.03;;;9.67;;
22034;SDS011;11181;51.002;4.356;2023-04-06T03:48:54;14.33;;;9.47;;
22034;SDS011;11181;51.002;4.356;2023-04-06T03:51:21;17.00;;;9.20;;
22034;SDS011;11181;51.002;4.356;2023-04-06T03:53:48;17.97;;;10.40;;
22034;SDS011;11181;51.002;4.356;2023-04-06T03:56:15;14.20;;;8.67;;
22034;SDS011;11181;51.002;4.356;2023-04-06T03:58:43;15.63;;;9.37;;
22034;SDS011;11181;51.002;4.356;2023-04-06T04:01:14;13.47;;;8.77;;
22034;SDS011;11181;51.002;4.356;2023-04-06T04:03:41;18.93;;;10.30;;
22034;SDS011;11181;51.002;4.356;2023-04-06T04:06:08;14.17;;;9.87;;
22034;SDS011;11181;51.002;4.356;2023-04-06T04:08:35;17.10;;;9.07;;
22034;SDS011;11181;51.002;4.356;2023-04-06T04:11:02;18.40;;;10.47;;
22034;SDS011;11181;51.002;4.356;2023-04-06T04:13:29;18.23;;;9.77;;
22034;SDS011;11181;51.002;4.356;2023-04-06T04:15:57;16.00;;;9.77;;
22034;SDS011;11181;51.002;4.356;2023-04-06T04:18:24;15.43;;;9.50;;
22034;SDS011;11181;51.002;4.356;2023-04-06T04:20:51;13.20;;;9.17;;
22034;SDS011;11181;51.002;4.356;2023-04-06T04:23:18;15.97;;;10.10;;
22034;SDS011;11181;51.002;4.356;2023-04-06T04:25:46;16.10;;;10.00;;
22034;SDS011;11181;51.002;4.356;2023-04-06T04:28:13;15.83;;;9.17;;
22034;SDS011;11181;51.002;4.356;2023-04-06T04:30:40;14.03;;;9.47;;
22034;SDS011;11181;51.002;4.356;2023-04-06T04:33:08;16.87;;;10.13;;
22034;SDS011;11181;51.002;4.356;2023-04-06T04:35:35;13.83;;;9.63;;
22034;SDS011;11181;51.002;4.356;2023-04-06T04:38:02;15.07;;;10.17;;
22034;SDS011;11181;51.002;4.356;2023-04-06T04:40:29;14.87;;;9.70;;
22034;SDS011;11181;51.002;4.356;2023-04-06T04:42:56;14.23;;;10.17;;
22034;SDS011;11181;51.002;4.356;2023-04-06T04:45:23;15.37;;;9.47;;
22034;SDS011;11181;51.002;4.356;2023-04-06T04:47:50;15.73;;;9.80;;
22034;SDS011;11181;51.002;4.356;2023-04-06T04:50:18;16.97;;;10.80;;
22034;SDS011;11181;51.002;4.356;2023-04-06T04:52:45;17.60;;;11.13;;
22034;SDS011;11181;51.002;4.356;2023-04-06T04:55:12;19.30;;;11.53;;
22034;SDS011;11181;51.002;4.356;2023-04-06T04:57:39;18.80;;;11.83;;
22034;SDS011;11181;51.002;4.356;2023-04-06T05:00:07;18.47;;;11.03;;
22034;SDS011;11181;51.002;4.356;2023-04-06T05:02:34;16.27;;;10.50;;
22034;SDS011;11181;51.002;4.356;2023-04-06T05:05:01;17.83;;;11.27;;
22034;SDS011;11181;51.002;4.356;2023-04-06T05:07:30;19.87;;;11.20;;
22034;SDS011;11181;51.002;4.356;2023-04-06T05:09:57;17.80;;;11.37;;
22034;SDS011;11181;51.002;4.356;2023-04-06T05:12:24;16.00;;;10.73;;
22034;SDS011;11181;51.002;4.356;2023-04-06T05:14:52;20.27;;;11.50;;
22034;SDS011;11181;51.002;4.356;2023-04-06T05:17:20;16.53;;;10.43;;
22034;SDS011;11181;51.002;4.356;2023-04-06T05:19:47;19.30;;;10.13;;
22034;SDS011;11181;51.002;4.356;2023-04-06T05:22:14;17.07;;;11.43;;
22034;SDS011;11181;51.002;4.356;2023-04-06T05:24:44;16.07;;;11.23;;
22034;SDS011;11181;51.002;4.356;2023-04-06T05:27:10;16.07;;;10.73;;
22034;SDS011;11181;51.002;4.356;2023-04-06T05:29:37;19.90;;;12.77;;
22034;SDS011;11181;51.002;4.356;2023-04-06T05:32:05;22.33;;;12.53;;
22034;SDS011;11181;51.002;4.356;2023-04-06T05:34:32;20.43;;;11.10;;
22034;SDS011;11181;51.002;4.356;2023-04-06T05:36:59;19.13;;;11.93;;
22034;SDS011;11181;51.002;4.356;2023-04-06T05:39:26;20.37;;;11.13;;
22034;SDS011;11181;51.002;4.356;2023-04-06T05:41:54;20.67;;;11.97;;
22034;SDS011;11181;51.002;4.356;2023-04-06T05:44:21;21.37;;;12.47;;
22034;SDS011;11181;51.002;4.356;2023-04-06T05:46:48;24.23;;;12.83;;
22034;SDS011;11181;51.002;4.356;2023-04-06T05:49:15;23.43;;;12.07;;
22034;SDS011;11181;51.002;4.356;2023-04-06T05:51:42;20.77;;;12.23;;
22034;SDS011;11181;51.002;4.356;2023-04-06T05:54:09;19.37;;;12.50;;
22034;SDS011;11181;51.002;4.356;2023-04-06T05:56:36;19.03;;;12.97;;
22034;SDS011;11181;51.002;4.356;2023-04-06T05:59:05;19.00;;;13.43;;
22034;SDS011;11181;51.002;4.356;2023-04-06T06:01:32;18.37;;;12.60;;
22034;SDS011;11181;51.002;4.356;2023-04-06T06:04:00;21.20;;;13.13;;
22034;SDS011;11181;51.002;4.356;2023-04-06T06:06:27;20.73;;;12.53;;
22034;SDS011;11181;51.002;4.356;2023-04-06T06:08:55;19.90;;;12.53;;
22034;SDS011;11181;51.002;4.356;2023-04-06T06:11:24;18.80;;;13.73;;
22034;SDS011;11181;51.002;4.356;2023-04-06T06:13:51;21.87;;;13.03;;
22034;SDS011;11181;51.002;4.356;2023-04-06T06:16:19;21.73;;;12.83;;
22034;SDS011;11181;51.002;4.356;2023-04-06T06:18:47;17.87;;;11.90;;
22034;SDS011;11181;51.002;4.356;2023-04-06T06:21:14;18.33;;;12.60;;
22034;SDS011;11181;51.002;4.356;2023-04-06T06:23:42;21.13;;;13.67;;
22034;SDS011;11181;51.002;4.356;2023-04-06T06:26:09;23.50;;;14.60;;
22034;SDS011;11181;51.002;4.356;2023-04-06T06:28:36;22.77;;;14.03;;
22034;SDS011;11181;51.002;4.356;2023-04-06T06:31:03;18.70;;;12.57;;
22034;SDS011;11181;51.002;4.356;2023-04-06T06:33:31;19.10;;;12.20;;
22034;SDS011;11181;51.002;4.356;2023-04-06T06:35:58;18.60;;;12.90;;
22034;SDS011;11181;51.002;4.356;2023-04-06T06:38:25;22.23;;;13.00;;
22034;SDS011;11181;51.002;4.356;2023-04-06T06:40:52;23.50;;;13.27;;
22034;SDS011;11181;51.002;4.356;2023-04-06T06:43:19;19.50;;;12.57;;
22034;SDS011;11181;51.002;4.356;2023-04-06T06:45:46;18.20;;;12.17;;
22034;SDS011;11181;51.002;4.356;2023-04-06T06:48:13;17.00;;;11.97;;
22034;SDS011;11181;51.002;4.356;2023-04-06T06:50:42;21.90;;;13.17;;
22034;SDS011;11181;51.002;4.356;2023-04-06T06:53:09;20.13;;;12.17;;
22034;SDS011;11181;51.002;4.356;2023-04-06T06:55:36;23.50;;;12.43;;
22034;SDS011;11181;51.002;4.356;2023-04-06T06:58:03;17.37;;;10.97;;
22034;SDS011;11181;51.002;4.356;2023-04-06T07:00:31;18.00;;;11.30;;
22034;SDS011;11181;51.002;4.356;2023-04-06T07:02:58;17.77;;;11.33;;
22034;SDS011;11181;51.002;4.356;2023-04-06T07:05:25;17.13;;;11.87;;
22034;SDS011;11181;51.002;4.356;2023-04-06T07:07:53;19.87;;;11.60;;
22034;SDS011;11181;51.002;4.356;2023-04-06T07:10:20;17.03;;;11.37;;
22034;SDS011;11181;51.002;4.356;2023-04-06T07:12:48;18.97;;;11.70;;
22034;SDS011;11181;51.002;4.356;2023-04-06T07:15:15;19.80;;;11.80;;
22034;SDS011;11181;51.002;4.356;2023-04-06T07:17:42;16.87;;;10.50;;
22034;SDS011;11181;51.002;4.356;2023-04-06T07:20:13;13.97;;;10.53;;
22034;SDS011;11181;51.002;4.356;2023-04-06T07:22:43;21.60;;;11.63;;
22034;SDS011;11181;51.002;4.356;2023-04-06T07:25:12;17.83;;;11.90;;
22034;SDS011;11181;51.002;4.356;2023-04-06T07:27:39;18.00;;;11.33;;
22034;SDS011;11181;51.002;4.356;2023-04-06T07:30:07;20.60;;;12.13;;
22034;SDS011;11181;51.002;4.356;2023-04-06T07:32:34;20.37;;;11.47;;
22034;SDS011;11181;51.002;4.356;2023-04-06T07:35:01;17.60;;;10.33;;
22034;SDS011;11181;51.002;4.356;2023-04-06T07:37:29;17.07;;;12.03;;
22034;SDS011;11181;51.002;4.356;2023-04-06T07:39:56;17.27;;;11.73;;
22034;SDS011;11181;51.002;4.356;2023-04-06T07:42:24;19.40;;;11.43;;
22034;SDS011;11181;51.002;4.356;2023-04-06T07:44:51;18.73;;;10.33;;
22034;SDS011;11181;51.002;4.356;2023-04-06T07:47:18;13.40;;;9.47;;
22034;SDS011;11181;51.002;4.356;2023-04-06T07:49:45;16.23;;;11.10;;
22034;SDS011;11181;51.002;4.356;2023-04-06T07:52:12;16.77;;;9.73;;
22034;SDS011;11181;51.002;4.356;2023-04-06T07:54:40;14.03;;;9.60;;
22034;SDS011;11181;51.002;4.356;2023-04-06T07:57:07;15.43;;;8.90;;
22034;SDS011;11181;51.002;4.356;2023-04-06T07:59:35;13.67;;;7.77;;
22034;SDS011;11181;51.002;4.356;2023-04-06T08:02:02;11.80;;;7.40;;
22034;SDS011;11181;51.002;4.356;2023-04-06T08:04:29;13.30;;;7.27;;
22034;SDS011;11181;51.002;4.356;2023-04-06T08:06:56;11.43;;;5.87;;
22034;SDS011;11181;51.002;4.356;2023-04-06T08:09:23;11.73;;;7.20;;
22034;SDS011;11181;51.002;4.356;2023-04-06T08:11:50;11.20;;;6.73;;
22034;SDS011;11181;51.002;4.356;2023-04-06T08:14:18;9.97;;;5.47;;
22034;SDS011;11181;51.002;4.356;2023-04-06T08:16:46;9.60;;;6.20;;
22034;SDS011;11181;51.002;4.356;2023-04-06T08:19:13;8.77;;;5.70;;
22034;SDS011;11181;51.002;4.356;2023-04-06T08:21:43;9.60;;;4.83;;
22034;SDS011;11181;51.002;4.356;2023-04-06T08:24:12;7.13;;;5.00;;
22034;SDS011;11181;51.002;4.356;2023-04-06T08:26:39;6.77;;;4.57;;
22034;SDS011;11181;51.002;4.356;2023-04-06T08:29:06;7.47;;;4.23;;
22034;SDS011;11181;51.002;4.356;2023-04-06T08:31:33;9.40;;;4.80;;
22034;SDS011;11181;51.002;4.356;2023-04-06T08:34:02;7.30;;;4.50;;
22034;SDS011;11181;51.002;4.356;2023-04-06T08:36:30;7.23;;;4.27;;
22034;SDS011;11181;51.002;4.356;2023-04-06T08:38:58;7.47;;;4.87;;
22034;SDS011;11181;51.002;4.356;2023-04-06T08:41:25;10.93;;;5.30;;
22034;SDS011;11181;51.002;4.356;2023-04-06T08:43:54;12.63;;;5.77;;
22034;SDS011;11181;51.002;4.356;2023-04-06T08:46:23;8.70;;;5.27;;
22034;SDS011;11181;51.002;4.356;2023-04-06T08:48:54;8.33;;;5.47;;
22034;SDS011;11181;51.002;4.356;2023-04-06T08:51:23;8.63;;;5.10;;
22034;SDS011;11181;51.002;4.356;2023-04-06T08:53:51;11.23;;;5.67;;
22034;SDS011;11181;51.002;4.356;2023-04-06T08:56:20;6.87;;;5.30;;
22034;SDS011;11181;51.002;4.356;2023-04-06T08:58:48;11.07;;;5.23;;
22034;SDS011;11181;51.002;4.356;2023-04-06T09:01:16;8.97;;;5.53;;
22034;SDS011;11181;51.002;4.356;2023-04-06T09:03:46;8.03;;;5.60;;
22034;SDS011;11181;51.002;4.356;2023-04-06T09:06:15;7.43;;;5.43;;
22034;SDS011;11181;51.002;4.356;2023-04-06T09:08:44;9.03;;;5.53;;
22034;SDS011;11181;51.002;4.356;2023-04-06T09:11:11;7.90;;;5.43;;
22034;SDS011;11181;51.002;4.356;2023-04-06T09:13:44;10.73;;;5.37;;
22034;SDS011;11181;51.002;4.356;2023-04-06T09:16:12;10.77;;;5.87;;
22034;SDS011;11181;51.002;4.356;2023-04-06T09:18:39;9.37;;;5.47;;
22034;SDS011;11181;51.002;4.356;2023-04-06T09:21:07;9.27;;;5.50;;
22034;SDS011;11181;51.002;4.356;2023-04-06T09:23:34;9.20;;;5.53;;
22034;SDS011;11181;51.002;4.356;2023-04-06T09:26:07;10.13;;;6.00;;
22034;SDS011;11181;51.002;4.356;2023-04-06T09:28:42;8.50;;;5.90;;
22034;SDS011;11181;51.002;4.356;2023-04-06T09:31:10;8.37;;;5.83;;
22034;SDS011;11181;51.002;4.356;2023-04-06T09:33:37;8.47;;;5.57;;
22034;SDS011;11181;51.002;4.356;2023-04-06T09:36:06;8.70;;;5.87;;
22034;SDS011;11181;51.002;4.356;2023-04-06T09:38:35;12.40;;;6.73;;
22034;SDS011;11181;51.002;4.356;2023-04-06T09:41:03;10.27;;;6.37;;
22034;SDS011;11181;51.002;4.356;2023-04-06T09:43:32;12.50;;;7.23;;
22034;SDS011;11181;51.002;4.356;2023-04-06T09:46:00;9.00;;;5.93;;
22034;SDS011;11181;51.002;4.356;2023-04-06T09:48:28;12.50;;;6.53;;
22034;SDS011;11181;51.002;4.356;2023-04-06T09:51:02;11.53;;;6.77;;
22034;SDS011;11181;51.002;4.356;2023-04-06T09:53:31;11.80;;;6.77;;
22034;SDS011;11181;51.002;4.356;2023-04-06T09:56:01;12.77;;;6.83;;
22034;SDS011;11181;51.002;4.356;2023-04-06T09:58:32;12.00;;;7.67;;
22034;SDS011;11181;51.002;4.356;2023-04-06T10:01:03;13.23;;;7.67;;
22034;SDS011;11181;51.002;4.356;2023-04-06T10:03:35;13.13;;;6.87;;
22034;SDS011;11181;51.002;4.356;2023-04-06T10:06:13;9.20;;;6.37;;
22034;SDS011;11181;51.002;4.356;2023-04-06T10:08:41;10.83;;;6.80;;
22034;SDS011;11181;51.002;4.356;2023-04-06T10:11:12;11.83;;;6.63;;
22034;SDS011;11181;51.002;4.356;2023-04-06T10:13:41;9.40;;;6.63;;
22034;SDS011;11181;51.002;4.356;2023-04-06T10:16:09;9.10;;;5.70;;
22034;SDS011;11181;51.002;4.356;2023-04-06T10:18:38;10.73;;;6.90;;
22034;SDS011;11181;51.002;4.356;2023-04-06T10:21:08;8.33;;;5.67;;
22034;SDS011;11181;51.002;4.356;2023-04-06T10:23:39;13.20;;;7.33;;
22034;SDS011;11181;51.002;4.356;2023-04-06T10:26:12;10.87;;;6.10;;
22034;SDS011;11181;51.002;4.356;2023-04-06T10:28:43;9.47;;;6.53;;
22034;SDS011;11181;51.002;4.356;2023-04-06T10:31:11;10.63;;;6.43;;
22034;SDS011;11181;51.002;4.356;2023-04-06T10:33:39;11.67;;;6.77;;
22034;SDS011;11181;51.002;4.356;2023-04-06T10:36:10;9.50;;;6.13;;
22034;SDS011;11181;51.002;4.356;2023-04-06T10:38:38;10.90;;;6.77;;
22034;SDS011;11181;51.002;4.356;2023-04-06T10:41:06;9.77;;;6.30;;
22034;SDS011;11181;51.002;4.356;2023-04-06T10:43:35;12.87;;;6.97;;
22034;SDS011;11181;51.002;4.356;2023-04-06T10:46:05;10.30;;;6.20;;
22034;SDS011;11181;51.002;4.356;2023-04-06T10:48:36;10.90;;;7.17;;
22034;SDS011;11181;51.002;4.356;2023-04-06T10:51:07;11.07;;;7.53;;
22034;SDS011;11181;51.002;4.356;2023-04-06T10:53:35;11.60;;;7.23;;
22034;SDS011;11181;51.002;4.356;2023-04-06T10:56:03;9.03;;;6.50;;
22034;SDS011;11181;51.002;4.356;2023-04-06T10:58:35;11.30;;;7.23;;
22034;SDS011;11181;51.002;4.356;2023-04-06T11:01:02;11.90;;;7.10;;
22034;SDS011;11181;51.002;4.356;2023-04-06T11:03:31;10.30;;;6.43;;
22034;SDS011;11181;51.002;4.356;2023-04-06T11:05:59;12.03;;;7.77;;
22034;SDS011;11181;51.002;4.356;2023-04-06T11:08:26;12.00;;;7.00;;
22034;SDS011;11181;51.002;4.356;2023-04-06T11:11:04;10.00;;;6.63;;
22034;SDS011;11181;51.002;4.356;2023-04-06T11:13:39;12.60;;;8.10;;
22034;SDS011;11181;51.002;4.356;2023-04-06T11:16:11;10.53;;;7.10;;
22034;SDS011;11181;51.002;4.356;2023-04-06T11:18:46;11.53;;;7.13;;
22034;SDS011;11181;51.002;4.356;2023-04-06T11:21:14;10.57;;;6.93;;
22034;SDS011;11181;51.002;4.356;2023-04-06T11:23:41;13.80;;;8.53;;
22034;SDS011;11181;51.002;4.356;2023-04-06T11:26:10;13.13;;;7.20;;
22034;SDS011;11181;51.002;4.356;2023-04-06T11:28:37;11.87;;;7.67;;
22034;SDS011;11181;51.002;4.356;2023-04-06T11:31:05;13.10;;;8.57;;
22034;SDS011;11181;51.002;4.356;2023-04-06T11:33:37;10.07;;;7.53;;
22034;SDS011;11181;51.002;4.356;2023-04-06T11:36:05;10.63;;;7.63;;
22034;SDS011;11181;51.002;4.356;2023-04-06T11:38:32;13.00;;;9.23;;
22034;SDS011;11181;51.002;4.356;2023-04-06T11:41:00;14.57;;;7.70;;
22034;SDS011;11181;51.002;4.356;2023-04-06T11:43:28;12.47;;;8.40;;
22034;SDS011;11181;51.002;4.356;2023-04-06T11:45:59;12.13;;;7.53;;
22034;SDS011;11181;51.002;4.356;2023-04-06T11:48:29;10.83;;;7.17;;
22034;SDS011;11181;51.002;4.356;2023-04-06T11:50:57;14.80;;;8.13;;
22034;SDS011;11181;51.002;4.356;2023-04-06T11:53:26;11.40;;;7.27;;
22034;SDS011;11181;51.002;4.356;2023-04-06T11:55:53;12.87;;;8.70;;
22034;SDS011;11181;51.002;4.356;2023-04-06T11:58:20;13.10;;;8.00;;
22034;SDS011;11181;51.002;4.356;2023-04-06T12:00:50;9.47;;;7.07;;
22034;SDS011;11181;51.002;4.356;2023-04-06T12:03:17;11.00;;;7.27;;
22034;SDS011;11181;51.002;4.356;2023-04-06T12:05:46;12.20;;;7.43;;
22034;SDS011;11181;51.002;4.356;2023-04-06T12:08:13;13.37;;;8.73;;
22034;SDS011;11181;51.002;4.356;2023-04-06T12:10:40;11.87;;;7.97;;
22034;SDS011;11181;51.002;4.356;2023-04-06T12:13:07;15.97;;;8.57;;
22034;SDS011;11181;51.002;4.356;2023-04-06T12:15:33;15.40;;;9.00;;
22034;SDS011;11181;51.002;4.356;2023-04-06T12:18:00;13.50;;;8.57;;
22034;SDS011;11181;51.002;4.356;2023-04-06T12:20:27;14.47;;;8.90;;
22034;SDS011;11181;51.002;4.356;2023-04-06T12:22:56;11.57;;;8.00;;
22034;SDS011;11181;51.002;4.356;2023-04-06T12:25:23;12.57;;;8.83;;
22034;SDS011;11181;51.002;4.356;2023-04-06T12:27:50;13.57;;;9.63;;
22034;SDS011;11181;51.002;4.356;2023-04-06T12:30:17;13.50;;;8.80;;
22034;SDS011;11181;51.002;4.356;2023-04-06T12:32:44;17.57;;;8.60;;
22034;SDS011;11181;51.002;4.356;2023-04-06T12:35:11;10.97;;;7.10;;
22034;SDS011;11181;51.002;4.356;2023-04-06T12:37:40;10.93;;;8.07;;
22034;SDS011;11181;51.002;4.356;2023-04-06T12:40:10;9.37;;;7.27;;
22034;SDS011;11181;51.002;4.356;2023-04-06T12:42:38;12.43;;;7.43;;
22034;SDS011;11181;51.002;4.356;2023-04-06T12:45:07;16.00;;;8.33;;
22034;SDS011;11181;51.002;4.356;2023-04-06T12:47:34;10.40;;;6.53;;
22034;SDS011;11181;51.002;4.356;2023-04-06T12:50:02;10.03;;;6.90;;
22034;SDS011;11181;51.002;4.356;2023-04-06T12:52:30;11.00;;;7.30;;
22034;SDS011;11181;51.002;4.356;2023-04-06T12:55:00;10.87;;;7.20;;
22034;SDS011;11181;51.002;4.356;2023-04-06T12:57:28;14.37;;;7.50;;
22034;SDS011;11181;51.002;4.356;2023-04-06T12:59:56;11.53;;;7.10;;
22034;SDS011;11181;51.002;4.356;2023-04-06T13:02:23;10.43;;;8.03;;
22034;SDS011;11181;51.002;4.356;2023-04-06T13:04:51;10.03;;;7.13;;
22034;SDS011;11181;51.002;4.356;2023-04-06T13:07:18;12.27;;;7.90;;
22034;SDS011;11181;51.002;4.356;2023-04-06T13:09:45;11.43;;;7.03;;
22034;SDS011;11181;51.002;4.356;2023-04-06T13:12:14;10.63;;;7.30;;
22034;SDS011;11181;51.002;4.356;2023-04-06T13:14:42;10.23;;;6.87;;
22034;SDS011;11181;51.002;4.356;2023-04-06T13:17:11;10.23;;;7.10;;
22034;SDS011;11181;51.002;4.356;2023-04-06T13:19:38;10.93;;;7.77;;
22034;SDS011;11181;51.002;4.356;2023-04-06T13:22:05;10.80;;;7.30;;
22034;SDS011;11181;51.002;4.356;2023-04-06T13:24:32;10.77;;;8.47;;
22034;SDS011;11181;51.002;4.356;2023-04-06T13:26:59;10.77;;;7.20;;
22034;SDS011;11181;51.002;4.356;2023-04-06T13:29:27;16.63;;;9.87;;
22034;SDS011;11181;51.002;4.356;2023-04-06T13:31:56;11.43;;;7.97;;
22034;SDS011;11181;51.002;4.356;2023-04-06T13:34:23;15.83;;;10.07;;
22034;SDS011;11181;51.002;4.356;2023-04-06T13:36:50;14.90;;;9.43;;
22034;SDS011;11181;51.002;4.356;2023-04-06T13:39:17;12.80;;;9.80;;
22034;SDS011;11181;51.002;4.356;2023-04-06T13:41:43;13.77;;;9.20;;
22034;SDS011;11181;51.002;4.356;2023-04-06T13:44:11;14.63;;;8.87;;
22034;SDS011;11181;51.002;4.356;2023-04-06T13:46:38;16.63;;;9.67;;
22034;SDS011;11181;51.002;4.356;2023-04-06T13:49:06;13.43;;;9.20;;
22034;SDS011;11181;51.002;4.356;2023-04-06T13:51:33;13.50;;;8.67;;
22034;SDS011;11181;51.002;4.356;2023-04-06T13:54:00;12.17;;;8.70;;
22034;SDS011;11181;51.002;4.356;2023-04-06T13:56:27;13.30;;;9.17;;
22034;SDS011;11181;51.002;4.356;2023-04-06T13:58:54;11.87;;;7.93;;
22034;SDS011;11181;51.002;4.356;2023-04-06T14:01:22;14.50;;;10.23;;
22034;SDS011;11181;51.002;4.356;2023-04-06T14:03:50;15.50;;;9.67;;
22034;SDS011;11181;51.002;4.356;2023-04-06T14:06:18;13.40;;;9.10;;
22034;SDS011;11181;51.002;4.356;2023-04-06T14:08:45;14.47;;;9.90;;
22034;SDS011;11181;51.002;4.356;2023-04-06T14:11:12;15.53;;;10.07;;
22034;SDS011;11181;51.002;4.356;2023-04-06T14:13:39;15.43;;;10.40;;
22034;SDS011;11181;51.002;4.356;2023-04-06T14:16:06;12.33;;;9.60;;
22034;SDS011;11181;51.002;4.356;2023-04-06T14:18:33;15.70;;;10.53;;
22034;SDS011;11181;51.002;4.356;2023-04-06T14:21:02;15.57;;;9.77;;
22034;SDS011;11181;51.002;4.356;2023-04-06T14:23:31;14.20;;;9.57;;
22034;SDS011;11181;51.002;4.356;2023-04-06T14:26:02;11.30;;;8.90;;
22034;SDS011;11181;51.002;4.356;2023-04-06T14:28:30;12.70;;;10.07;;
22034;SDS011;11181;51.002;4.356;2023-04-06T14:30:58;14.17;;;9.23;;
22034;SDS011;11181;51.002;4.356;2023-04-06T14:33:26;12.37;;;9.67;;
22034;SDS011;11181;51.002;4.356;2023-04-06T14:35:53;13.30;;;9.90;;